Time;durP1;ratioP1;P1;durP2;ratioP2;P2;SDS_P1;SDS_P2;PMS_P1;PMS_P2;Temp;Humidity;BMP_temperature;BMP_pressure;BME280_temperature;BME280_humidity;BME280_pressure;Samples;Min_cycle;Max_cycle;Signal;HPM_P1;HPM_P2
2022/04/12 00:00:32;;;;;;;2.25;1.90;;;;;;;5.58;100.00;99017.84;5050143;28;20091;-49
2022/04/12 00:02:58;;;;;;;2.83;1.80;;;;;;;5.58;100.00;99033.31;5066612;28;20044;-47
2022/04/12 00:05:23;;;;;;;2.08;1.75;;;;;;;5.50;100.00;99010.28;5051198;28;20623;-50
2022/04/12 00:07:49;;;;;;;2.63;1.35;;;;;;;5.65;100.00;99009.09;5047879;28;20044;-50
2022/04/12 00:10:16;;;;;;;1.10;0.70;;;;;;;5.58;100.00;98979.19;5049192;28;20460;-49
2022/04/12 00:12:42;;;;;;;1.52;0.98;;;;;;;5.67;100.00;98984.94;5050864;28;20040;-50
2022/04/12 00:15:10;;;;;;;0.73;0.52;;;;;;;5.69;100.00;98979.75;5057077;28;20066;-50
2022/04/12 00:20:21;;;;;;;2.05;1.35;;;;;;;5.71;100.00;98975.38;5047526;28;20037;-51
2022/04/12 00:22:47;;;;;;;1.98;1.30;;;;;;;5.66;100.00;98969.50;5049236;28;20043;-50
2022/04/12 00:25:13;;;;;;;3.65;1.27;;;;;;;5.74;100.00;98977.91;5046776;28;20463;-51
2022/04/12 00:27:40;;;;;;;2.42;1.90;;;;;;;5.75;100.00;98975.28;5047944;28;20684;-51
2022/04/12 00:30:08;;;;;;;2.47;2.00;;;;;;;5.78;100.00;98971.75;5030148;28;20131;-52
2022/04/12 00:32:35;;;;;;;9.18;7.43;;;;;;;5.79;100.00;98970.88;5047320;28;20060;-51
2022/04/12 00:35:02;;;;;;;19.33;13.85;;;;;;;5.82;100.00;98978.53;5046730;28;20102;-51
2022/04/12 00:37:28;;;;;;;14.80;13.00;;;;;;;5.81;100.00;98966.53;5046142;28;20186;-52
2022/04/12 00:39:54;;;;;;;16.77;12.85;;;;;;;5.85;100.00;98968.16;5047707;28;20131;-53
2022/04/12 00:42:20;;;;;;;16.08;11.00;;;;;;;5.87;100.00;98961.22;5046801;28;20047;-51
2022/04/12 00:44:47;;;;;;;7.78;5.85;;;;;;;5.90;100.00;98950.84;5079589;28;20040;-51
2022/04/12 00:47:13;;;;;;;6.82;4.72;;;;;;;5.91;100.00;98942.22;5045993;28;20045;-48
2022/04/12 00:49:39;;;;;;;7.03;3.92;;;;;;;5.75;100.00;98900.50;5047573;28;20429;-49
2022/04/12 00:52:07;;;;;;;42.70;27.13;;;;;;;5.92;100.00;98931.00;5047663;28;20052;-48
2022/04/12 00:54:34;;;;;;;28.48;17.67;;;;;;;5.92;100.00;98929.25;5049739;28;20512;-48
2022/04/12 00:56:59;;;;;;;23.30;12.65;;;;;;;5.90;100.00;98913.00;5050742;28;20564;-48
2022/04/12 00:59:26;;;;;;;1.17;0.90;;;;;;;5.85;100.00;98917.41;5084121;28;20064;-49
2022/04/12 01:01:52;;;;;;;2.50;1.10;;;;;;;5.88;100.00;98926.81;5069140;28;20048;-49
2022/04/12 01:04:18;;;;;;;1.08;0.68;;;;;;;5.86;100.00;98926.00;5051882;28;20068;-50
2022/04/12 01:06:44;;;;;;;1.98;0.95;;;;;;;5.86;100.00;98928.56;5052121;28;20036;-50
2022/04/12 01:09:10;;;;;;;0.60;0.60;;;;;;;5.87;100.00;98925.97;5051117;28;20560;-51
2022/04/12 01:11:37;;;;;;;5.38;3.70;;;;;;;5.90;100.00;98925.06;5052049;28;20120;-49
2022/04/12 01:14:03;;;;;;;6.65;4.85;;;;;;;5.90;100.00;98920.75;5032534;28;20421;-49
2022/04/12 01:16:31;;;;;;;8.50;6.53;;;;;;;5.91;100.00;98909.50;5030134;28;20041;-49
2022/04/12 01:18:57;;;;;;;7.93;5.85;;;;;;;5.91;100.00;98899.19;5049855;28;20052;-46
2022/04/12 01:21:23;;;;;;;5.90;4.57;;;;;;;5.93;100.00;98912.06;5051633;28;20041;-50
2022/04/12 01:24:02;;;;;;;4.20;3.53;;;;;;;5.94;100.00;98911.16;5049474;28;20044;-52
2022/04/12 01:26:28;;;;;;;2.88;2.60;;;;;;;5.93;100.00;98910.31;5050702;28;20095;-50
2022/04/12 01:28:54;;;;;;;5.90;3.83;;;;;;;5.95;100.00;98900.81;5058927;28;20085;-47
2022/04/12 01:31:19;;;;;;;6.07;4.78;;;;;;;5.95;100.00;98905.97;5069316;28;20107;-48
2022/04/12 01:33:45;;;;;;;3.13;2.80;;;;;;;5.97;100.00;98909.34;5067830;28;20127;-50
2022/04/12 01:36:11;;;;;;;1.40;1.30;;;;;;;5.94;100.00;98899.13;5038457;28;20041;-54
2022/04/12 01:38:37;;;;;;;1.45;1.35;;;;;;;5.97;100.00;98910.25;5056538;28;20048;-49
2022/04/12 01:41:02;;;;;;;2.83;1.70;;;;;;;5.99;100.00;98903.28;5052661;28;20626;-47
2022/04/12 01:43:29;;;;;;;3.00;2.35;;;;;;;5.98;100.00;98894.72;5050832;28;20131;-48
2022/04/12 01:45:55;;;;;;;1.38;1.27;;;;;;;6.00;100.00;98886.94;5053450;28;20048;-50
2022/04/12 01:48:21;;;;;;;2.15;1.75;;;;;;;6.00;100.00;98892.94;5054652;28;20044;-51
2022/04/12 01:50:46;;;;;;;2.80;2.40;;;;;;;5.91;100.00;98875.16;5049728;28;20037;-47
2022/04/12 01:53:12;;;;;;;3.33;2.45;;;;;;;6.04;100.00;98886.81;5050741;28;20123;-50
2022/04/12 01:55:38;;;;;;;2.30;2.10;;;;;;;6.03;100.00;98874.78;5062519;28;20128;-51
2022/04/12 01:58:04;;;;;;;3.53;2.78;;;;;;;6.01;100.00;98879.16;5063804;28;20044;-52
2022/04/12 02:00:30;;;;;;;2.42;2.20;;;;;;;6.00;100.00;98879.19;5051422;28;20057;-53
2022/04/12 02:02:56;;;;;;;4.18;2.40;;;;;;;6.00;100.00;98874.88;5050797;28;20102;-53
2022/04/12 02:05:22;;;;;;;3.25;2.42;;;;;;;6.01;100.00;98875.72;5052635;28;20045;-50
2022/04/12 02:07:47;;;;;;;4.85;2.10;;;;;;;6.04;100.00;98881.63;5050351;28;20048;-52
2022/04/12 02:10:13;;;;;;;3.55;2.00;;;;;;;6.06;100.00;98882.44;5050780;28;20032;-51
2022/04/12 02:12:39;;;;;;;2.58;1.95;;;;;;;6.04;100.00;98885.94;5062021;28;20608;-50
2022/04/12 02:15:06;;;;;;;6.45;2.55;;;;;;;6.06;100.00;98879.88;5068273;28;20037;-49
2022/04/12 02:17:31;;;;;;;4.60;2.60;;;;;;;5.94;100.00;98855.25;5068517;28;20067;-52
2022/04/12 02:19:57;;;;;;;4.88;2.90;;;;;;;6.07;100.00;98862.66;5064032;28;20071;-51
2022/04/12 02:22:23;;;;;;;4.97;2.85;;;;;;;6.07;100.00;98871.22;5050085;28;20605;-55
2022/04/12 02:24:49;;;;;;;2.70;2.28;;;;;;;6.10;100.00;98878.03;5052642;28;20144;-53
2022/04/12 02:27:14;;;;;;;4.45;2.15;;;;;;;6.07;100.00;98865.25;5058909;28;20151;-53
2022/04/12 02:29:40;;;;;;;7.93;3.17;;;;;;;6.07;100.00;98854.91;5061882;28;20067;-51
2022/04/12 02:32:06;;;;;;;3.25;2.72;;;;;;;6.13;100.00;98871.03;5049385;28;20424;-51
2022/04/12 02:34:32;;;;;;;3.50;2.83;;;;;;;6.11;100.00;98857.34;5065995;28;20044;-49
2022/04/12 02:36:58;;;;;;;4.22;3.05;;;;;;;6.12;100.00;98855.63;5052652;28;20072;-52
2022/04/12 02:39:24;;;;;;;4.68;4.20;;;;;;;6.15;100.00;98848.63;5063608;28;20139;-52
2022/04/12 02:41:50;;;;;;;3.35;2.75;;;;;;;6.15;100.00;98838.31;5051601;28;20032;-55
2022/04/12 02:44:17;;;;;;;4.07;1.85;;;;;;;6.13;100.00;98831.50;5050070;28;20063;-50
2022/04/12 02:46:42;;;;;;;5.72;3.10;;;;;;;6.14;100.00;98836.59;5049515;28;20064;-49
2022/04/12 02:49:08;;;;;;;3.15;2.53;;;;;;;6.12;100.00;98848.72;5056844;28;20071;-50
2022/04/12 02:51:33;;;;;;;2.05;1.85;;;;;;;6.13;100.00;98865.88;5045861;28;20089;-50
2022/04/12 02:53:59;;;;;;;1.00;0.90;;;;;;;6.08;100.00;98867.75;5049035;28;20040;-54
2022/04/12 02:56:25;;;;;;;1.80;1.17;;;;;;;6.06;100.00;98866.97;5049433;28;20044;-51
2022/04/12 02:58:51;;;;;;;1.00;0.90;;;;;;;6.06;100.00;98854.06;5047576;28;20059;-51
2022/04/12 03:01:16;;;;;;;0.88;0.70;;;;;;;6.16;100.00;98858.06;5049683;28;20586;-48
2022/04/12 03:03:42;;;;;;;0.68;0.50;;;;;;;6.18;100.00;98858.00;5050025;28;20040;-48
2022/04/12 03:06:08;;;;;;;1.00;0.90;;;;;;;6.16;100.00;98857.22;5049866;28;20106;-47
2022/04/12 03:08:34;;;;;;;0.85;0.75;;;;;;;6.16;100.00;98865.81;5056160;28;20094;-48
2022/04/12 03:11:00;;;;;;;0.80;0.70;;;;;;;6.12;100.00;98866.81;5057445;28;20098;-51
2022/04/12 03:13:25;;;;;;;2.80;1.20;;;;;;;6.16;100.00;98863.22;5025041;28;20735;-48
2022/04/12 03:15:51;;;;;;;2.22;0.90;;;;;;;6.17;100.00;98862.34;5049829;28;20045;-52
2022/04/12 03:18:17;;;;;;;1.73;1.25;;;;;;;6.18;100.00;98865.75;5049075;28;20087;-52
2022/04/12 03:20:43;;;;;;;0.90;0.80;;;;;;;6.23;100.00;98869.03;5049132;28;20098;-53
2022/04/12 03:23:09;;;;;;;1.98;1.08;;;;;;;6.15;100.00;98845.19;5052110;28;20105;-51
2022/04/12 03:25:35;;;;;;;1.35;0.95;;;;;;;6.18;100.00;98850.25;5059585;28;21657;-52
2022/04/12 03:28:01;;;;;;;3.15;1.40;;;;;;;6.21;100.00;98853.63;5031337;28;20044;-49
2022/04/12 03:30:27;;;;;;;1.50;1.20;;;;;;;6.17;100.00;98846.00;5056772;28;20136;-52
2022/04/12 03:32:53;;;;;;;4.35;1.98;;;;;;;6.27;100.00;98856.00;5046328;28;20044;-47
2022/04/12 03:35:19;;;;;;;3.15;1.80;;;;;;;6.26;100.00;98850.88;5056654;28;20076;-52
2022/04/12 03:37:45;;;;;;;2.33;1.00;;;;;;;6.39;100.00;98865.94;5057430;28;20454;-52
2022/04/12 03:40:11;;;;;;;1.00;0.90;;;;;;;6.31;100.00;98833.53;5051196;28;20045;-50
2022/04/12 03:42:37;;;;;;;2.45;1.00;;;;;;;6.44;100.00;98846.91;5047376;28;20045;-49
2022/04/12 03:45:03;;;;;;;1.40;1.10;;;;;;;6.47;100.00;98844.22;5064066;28;20476;-48
2022/04/12 03:47:29;;;;;;;1.70;1.30;;;;;;;6.42;100.00;98826.28;5065056;28;20459;-47
2022/04/12 03:49:55;;;;;;;2.58;1.40;;;;;;;6.45;100.00;98831.34;5057034;28;20041;-48
2022/04/12 03:52:20;;;;;;;2.20;1.40;;;;;;;6.55;100.00;98849.97;5050474;28;20064;-48
2022/04/12 03:54:46;;;;;;;2.20;1.30;;;;;;;6.55;100.00;98860.31;5045770;28;20033;-49
2022/04/12 03:57:12;;;;;;;2.97;1.42;;;;;;;6.56;100.00;98851.66;5049532;28;20539;-51
2022/04/12 03:59:37;;;;;;;2.13;1.40;;;;;;;6.57;100.00;98868.84;5045683;28;20049;-52
2022/04/12 04:02:03;;;;;;;2.58;1.70;;;;;;;6.62;100.00;98870.41;5064317;28;20041;-50
2022/04/12 04:04:29;;;;;;;7.50;1.50;;;;;;;6.62;100.00;98877.31;5050357;28;20084;-51
2022/04/12 04:06:55;;;;;;;2.42;1.58;;;;;;;6.62;100.00;98885.06;5048116;28;20063;-53
2022/04/12 04:09:21;;;;;;;3.38;1.90;;;;;;;6.50;100.00;98857.88;5056433;28;20079;-50
2022/04/12 04:11:48;;;;;;;3.50;1.70;;;;;;;6.63;100.00;98884.16;5065402;28;20089;-50
2022/04/12 04:14:15;;;;;;;3.55;1.77;;;;;;;6.64;100.00;98878.97;5061784;28;20067;-50
2022/04/12 04:16:41;;;;;;;5.10;2.28;;;;;;;6.68;100.00;98874.53;5064533;28;20062;-50
2022/04/12 04:19:09;;;;;;;2.80;1.77;;;;;;;6.66;100.00;98871.16;5063680;28;20044;-52
2022/04/12 04:21:36;;;;;;;3.58;2.08;;;;;;;6.65;100.00;98867.72;5068125;28;20069;-49
2022/04/12 04:24:02;;;;;;;3.33;1.75;;;;;;;6.55;100.00;98853.41;5062209;28;20049;-50
2022/04/12 04:26:28;;;;;;;3.65;1.95;;;;;;;6.73;100.00;98886.41;5061867;28;20037;-51
2022/04/12 04:28:54;;;;;;;4.35;2.00;;;;;;;6.61;100.00;98860.97;5051535;28;20066;-50
2022/04/12 04:31:20;;;;;;;3.47;2.13;;;;;;;6.73;100.00;98886.41;5052008;28;20037;-49
2022/04/12 04:33:46;;;;;;;5.68;2.47;;;;;;;6.76;100.00;98880.28;5058831;28;20119;-49
2022/04/12 04:36:12;;;;;;;3.10;2.35;;;;;;;6.76;100.00;98882.88;5065566;28;20039;-50
2022/04/12 04:38:37;;;;;;;3.97;2.00;;;;;;;6.80;100.00;98882.72;5058764;28;20618;-47
2022/04/12 04:41:03;;;;;;;5.68;2.67;;;;;;;6.84;100.00;98872.31;5058914;28;20094;-51
2022/04/12 04:43:29;;;;;;;4.20;2.20;;;;;;;6.74;100.00;98856.25;5055082;28;20037;-48
2022/04/12 04:45:55;;;;;;;3.70;2.10;;;;;;;6.80;100.00;98869.00;5066200;28;20044;-49
2022/04/12 04:48:22;;;;;;;4.30;2.67;;;;;;;6.81;100.00;98865.50;5052957;28;20139;-50
2022/04/12 04:50:48;;;;;;;4.90;2.88;;;;;;;6.85;100.00;98863.66;5055256;28;20040;-53
2022/04/12 04:53:14;;;;;;;5.40;3.20;;;;;;;6.84;100.00;98869.72;5067103;28;20051;-50
2022/04/12 04:55:42;;;;;;;6.93;4.20;;;;;;;6.86;100.00;98870.50;5068141;28;20036;-52
2022/04/12 04:58:08;;;;;;;7.63;4.30;;;;;;;6.81;100.00;98853.41;5067982;28;20044;-52
2022/04/12 05:00:34;;;;;;;5.07;2.78;;;;;;;6.90;100.00;98847.13;5056751;28;20062;-51
2022/04/12 05:03:02;;;;;;;6.10;3.65;;;;;;;7.03;100.00;98868.22;5051458;28;20063;-52
2022/04/12 05:05:27;;;;;;;6.65;3.03;;;;;;;7.07;100.00;98880.13;5034223;28;20171;-53
2022/04/12 05:07:55;;;;;;;5.97;3.63;;;;;;;7.07;100.00;98867.22;5049758;28;20490;-52
2022/04/12 05:10:23;;;;;;;5.63;2.97;;;;;;;7.02;100.00;98853.59;5043511;28;20528;-51
2022/04/12 05:12:49;;;;;;;3.92;2.92;;;;;;;7.15;100.00;98858.34;5060846;28;20594;-54
2022/04/12 05:15:15;;;;;;;8.40;3.80;;;;;;;7.17;100.00;98863.47;5060141;28;20515;-51
2022/04/12 05:17:43;;;;;;;5.07;3.22;;;;;;;7.12;100.00;98854.97;5049444;28;20048;-51
2022/04/12 05:20:10;;;;;;;7.70;4.18;;;;;;;7.10;100.00;98844.72;5046187;28;20085;-50
2022/04/12 05:22:36;;;;;;;5.80;3.28;;;;;;;7.14;100.00;98845.44;5056706;28;20405;-51
2022/04/12 05:25:02;;;;;;;5.15;3.25;;;;;;;7.10;100.00;98855.06;5049659;28;20041;-51
2022/04/12 05:27:33;;;;;;;5.65;3.35;;;;;;;7.09;100.00;98865.44;5050494;28;20127;-51
2022/04/12 05:30:02;;;;;;;;;;;;;;;7.08;100.00;98849.09;5055927;28;20426;-46
2022/04/12 05:32:29;;;;;;;6.47;3.90;;;;;;;7.08;100.00;98849.09;5050359;28;19928;-51
2022/04/12 05:34:54;;;;;;;8.27;4.47;;;;;;;7.11;100.00;98881.75;5050193;28;20033;-49
2022/04/12 05:37:20;;;;;;;6.13;4.00;;;;;;;7.12;100.00;98865.31;5051672;28;20037;-48
2022/04/12 05:39:46;;;;;;;11.30;6.03;;;;;;;7.16;100.00;98865.19;5048353;28;20145;-52
2022/04/12 05:42:12;;;;;;;11.55;6.85;;;;;;;7.21;100.00;98873.63;5055836;28;20068;-49
2022/04/12 05:44:37;;;;;;;8.38;5.43;;;;;;;7.29;100.00;98880.28;5068911;28;20388;-51
2022/04/12 05:47:04;;;;;;;11.27;5.13;;;;;;;7.32;100.00;98877.59;5067142;28;20050;-51
2022/04/12 05:49:30;;;;;;;9.27;4.78;;;;;;;7.26;100.00;98863.13;5049728;28;20560;-51
2022/04/12 05:51:56;;;;;;;17.15;6.18;;;;;;;7.39;100.00;98879.06;5048988;28;20044;-49
2022/04/12 05:54:22;;;;;;;8.43;4.82;;;;;;;7.46;100.00;98865.88;5049911;28;20421;-50
2022/04/12 05:56:48;;;;;;;7.13;4.53;;;;;;;7.56;100.00;98868.97;5049960;28;20029;-54
2022/04/12 05:59:14;;;;;;;9.80;5.05;;;;;;;7.64;100.00;98864.41;5054523;28;20056;-50
2022/04/12 06:01:40;;;;;;;9.77;5.40;;;;;;;7.75;100.00;98875.19;5051023;28;20501;-49
2022/04/12 06:04:06;;;;;;;8.93;5.18;;;;;;;7.86;100.00;98870.47;5053037;28;20048;-49
2022/04/12 06:06:32;;;;;;;9.52;5.35;;;;;;;7.98;100.00;98866.59;5051842;28;20037;-51
2022/04/12 06:08:59;;;;;;;12.38;5.05;;;;;;;8.05;99.06;98873.25;5058056;28;20037;-53
2022/04/12 06:11:25;;;;;;;10.57;5.45;;;;;;;8.07;98.79;98863.66;5051577;28;20064;-50
2022/04/12 06:13:51;;;;;;;10.95;5.88;;;;;;;8.17;98.28;98861.56;5052340;28;20575;-53
2022/04/12 06:16:17;;;;;;;10.45;6.72;;;;;;;8.32;97.78;98871.41;5059481;28;20051;-49
2022/04/12 06:18:42;;;;;;;12.30;6.07;;;;;;;8.26;96.47;98854.31;5053867;28;20044;-53
2022/04/12 06:21:08;;;;;;;12.73;6.05;;;;;;;8.42;95.87;98870.13;5047694;28;20049;-47
2022/04/12 06:23:34;;;;;;;13.55;6.35;;;;;;;8.48;95.55;98872.47;5035581;28;20036;-55
2022/04/12 06:26:00;;;;;;;12.18;6.60;;;;;;;8.55;95.87;98873.06;5056036;28;20056;-53
2022/04/12 06:28:26;;;;;;;12.30;7.22;;;;;;;8.62;95.40;98874.53;5056926;28;20037;-53
2022/04/12 06:30:52;;;;;;;12.85;7.30;;;;;;;8.63;94.65;98879.66;5053443;28;20044;-50
2022/04/12 06:33:19;;;;;;;10.23;7.30;;;;;;;8.68;94.25;98884.66;5067414;28;20043;-48
2022/04/12 06:35:45;;;;;;;12.18;7.80;;;;;;;8.71;93.89;98876.75;5049622;28;20040;-47
2022/04/12 06:38:11;;;;;;;15.30;8.02;;;;;;;8.78;93.55;98880.81;5048497;28;20530;-49
2022/04/12 06:40:38;;;;;;;11.93;7.13;;;;;;;8.73;93.20;98860.25;5049504;28;20051;-49
2022/04/12 06:43:06;;;;;;;12.30;7.93;;;;;;;8.87;92.84;98872.66;5049546;28;20037;-51
2022/04/12 06:45:32;;;;;;;14.27;8.15;;;;;;;8.85;91.74;98879.63;5048241;28;20093;-49
2022/04/12 06:47:59;;;;;;;15.30;8.57;;;;;;;8.85;91.22;98879.63;5049724;28;20140;-51
2022/04/12 06:50:26;;;;;;;12.77;7.43;;;;;;;8.73;91.83;98857.66;5047313;28;20052;-51
2022/04/12 06:52:53;;;;;;;12.45;7.32;;;;;;;8.79;91.23;98877.31;5049589;28;20047;-50
2022/04/12 06:55:18;;;;;;;14.00;7.55;;;;;;;8.91;90.82;98887.16;5048288;28;20041;-52
2022/04/12 06:57:44;;;;;;;16.80;9.13;;;;;;;8.90;90.25;98869.91;5049325;28;20098;-54
2022/04/12 07:00:11;;;;;;;13.15;7.65;;;;;;;9.04;89.04;98885.78;5045719;28;20144;-50
2022/04/12 07:02:37;;;;;;;13.05;7.80;;;;;;;9.10;88.84;98877.75;5031328;28;20047;-51
2022/04/12 07:05:04;;;;;;;12.80;7.15;;;;;;;9.13;87.81;98880.22;5048202;28;20388;-50
2022/04/12 07:07:31;;;;;;;14.18;8.25;;;;;;;9.12;87.32;98877.66;5048791;28;20402;-48
2022/04/12 07:09:57;;;;;;;29.30;12.48;;;;;;;9.05;87.08;98873.66;5048037;28;20044;-49
2022/04/12 07:12:24;;;;;;;14.80;8.95;;;;;;;9.09;86.74;98883.84;5080901;28;20041;-50
2022/04/12 07:14:51;;;;;;;14.02;8.63;;;;;;;9.10;86.47;98876.91;5047887;28;20037;-50
2022/04/12 07:17:16;;;;;;;14.50;8.07;;;;;;;9.16;85.76;98877.47;5083648;28;20041;-49
2022/04/12 07:19:44;;;;;;;14.73;8.48;;;;;;;9.20;85.72;98886.00;5030841;28;20048;-51
2022/04/12 07:22:09;;;;;;;16.85;8.85;;;;;;;9.18;84.71;98882.59;5048719;28;20079;-53
2022/04/12 07:24:36;;;;;;;21.80;10.50;;;;;;;9.10;84.74;98869.97;5030320;28;20084;-49
2022/04/12 07:27:02;;;;;;;16.35;9.18;;;;;;;9.17;84.38;98886.09;5048584;28;20098;-54
2022/04/12 07:29:28;;;;;;;14.77;9.05;;;;;;;9.11;83.54;98878.56;5048149;28;20040;-50
2022/04/12 07:31:53;;;;;;;15.57;9.27;;;;;;;9.22;82.65;98891.94;5064056;28;20037;-52
2022/04/12 07:34:19;;;;;;;17.05;10.23;;;;;;;9.22;82.06;98892.78;5048330;28;20824;-54
2022/04/12 07:36:47;;;;;;;19.63;10.90;;;;;;;9.12;81.79;98875.06;5048560;28;20115;-52
2022/04/12 07:39:15;;;;;;;16.90;9.80;;;;;;;9.18;80.63;98896.41;5030392;28;20526;-51
2022/04/12 07:41:41;;;;;;;20.23;10.15;;;;;;;8.97;80.39;98866.19;5063995;28;20069;-52
2022/04/12 07:44:06;;;;;;;22.33;11.95;;;;;;;9.16;79.86;98902.59;5048417;28;20067;-51
2022/04/12 07:46:32;;;;;;;57.00;33.67;;;;;;;9.07;79.86;98889.97;5048204;28;20139;-52
2022/04/12 07:48:58;;;;;;;25.08;12.95;;;;;;;9.14;79.19;98904.38;5047998;28;20063;-48
2022/04/12 07:51:23;;;;;;;15.40;9.40;;;;;;;9.15;78.44;98906.94;5047689;28;20045;-53
2022/04/12 07:53:49;;;;;;;16.55;9.50;;;;;;;9.16;78.43;98894.81;5046897;28;20412;-53
2022/04/12 07:56:16;;;;;;;18.98;10.02;;;;;;;9.19;77.81;98890.34;5048122;28;20052;-51
2022/04/12 07:58:42;;;;;;;24.27;12.65;;;;;;;9.23;77.26;98898.81;5045896;28;20076;-49
2022/04/12 08:01:08;;;;;;;18.98;9.20;;;;;;;9.27;76.63;98914.19;5060875;28;20489;-53
2022/04/12 08:03:34;;;;;;;17.45;9.43;;;;;;;9.26;77.08;98911.69;5067924;28;20365;-50
2022/04/12 08:06:00;;;;;;;18.80;9.95;;;;;;;9.32;76.49;98903.63;5052906;28;20037;-47
2022/04/12 08:08:26;;;;;;;28.52;15.63;;;;;;;9.35;76.22;98909.53;5048002;28;20051;-51
2022/04/12 08:10:52;;;;;;;21.40;11.90;;;;;;;9.40;76.08;98911.09;5047644;28;20040;-52
2022/04/12 08:13:17;;;;;;;19.77;10.00;;;;;;;9.44;75.93;98918.69;5047979;28;20580;-52
2022/04/12 08:15:43;;;;;;;20.25;10.57;;;;;;;9.50;75.43;98912.38;5046885;28;20115;-53
2022/04/12 08:18:09;;;;;;;18.08;10.25;;;;;;;9.57;75.19;98921.59;5047892;28;20539;-52
2022/04/12 08:20:35;;;;;;;16.08;9.15;;;;;;;9.60;74.24;98918.88;5046218;28;20079;-51
2022/04/12 08:23:02;;;;;;;16.05;8.65;;;;;;;9.68;74.13;98911.63;5047845;28;20064;-53
2022/04/12 08:25:28;;;;;;;16.92;8.70;;;;;;;9.73;74.37;98909.66;5047422;28;20053;-50
2022/04/12 08:27:55;;;;;;;17.95;9.23;;;;;;;9.79;73.76;98904.19;5047619;28;20047;-51
2022/04/12 08:30:21;;;;;;;18.85;9.25;;;;;;;9.87;73.22;98911.66;5046603;28;20140;-51
2022/04/12 08:32:47;;;;;;;15.85;9.40;;;;;;;9.93;73.32;98904.44;5048053;28;20098;-47
2022/04/12 08:35:13;;;;;;;15.90;8.70;;;;;;;9.96;72.67;98906.88;5046780;28;20099;-49
2022/04/12 08:37:39;;;;;;;15.93;9.00;;;;;;;9.95;72.62;98905.19;5046827;28;20140;-49
2022/04/12 08:40:06;;;;;;;20.42;9.50;;;;;;;9.92;72.49;98879.38;5059427;28;20405;-53
2022/04/12 08:42:32;;;;;;;16.90;8.90;;;;;;;10.14;72.06;98900.03;5047560;28;20064;-51
2022/04/12 08:44:58;;;;;;;19.80;10.50;;;;;;;10.23;71.42;98911.78;5047518;28;20052;-50
2022/04/12 08:47:25;;;;;;;15.93;9.30;;;;;;;10.27;71.41;98908.13;5047338;28;20075;-50
2022/04/12 08:49:50;;;;;;;18.15;9.38;;;;;;;10.27;71.52;98901.19;5047185;28;20056;-52
2022/04/12 08:52:16;;;;;;;14.68;8.85;;;;;;;10.27;71.27;98897.75;5047560;28;20033;-50
2022/04/12 08:54:44;;;;;;;14.90;8.35;;;;;;;10.22;71.06;98895.38;5047380;28;20105;-52
2022/04/12 08:57:11;;;;;;;17.55;9.15;;;;;;;10.23;71.00;98909.19;5046275;28;20055;-52
2022/04/12 08:59:38;;;;;;;17.10;8.80;;;;;;;10.24;70.94;98900.50;5045472;28;20080;-51
2022/04/12 09:02:07;;;;;;;26.80;9.20;;;;;;;10.34;70.89;98896.56;5047740;28;20085;-49
2022/04/12 09:04:33;;;;;;;19.92;9.55;;;;;;;10.34;70.50;98893.97;5047305;28;20049;-54
2022/04/12 09:07:00;;;;;;;21.30;9.48;;;;;;;10.21;70.47;98893.69;5026220;28;20044;-49
2022/04/12 09:09:29;;;;;;;17.52;8.90;;;;;;;10.32;70.82;98900.97;5026789;28;20056;-52
2022/04/12 09:11:59;;;;;;;16.83;10.15;;;;;;;10.31;70.86;98900.13;5046260;28;20071;-52
2022/04/12 09:14:25;;;;;;;17.65;9.52;;;;;;;10.31;70.64;98910.53;5048940;28;20049;-50
2022/04/12 09:16:52;;;;;;;19.23;9.80;;;;;;;10.30;70.81;98905.44;5083388;28;20049;-49
2022/04/12 09:19:47;;;;;;;24.58;10.82;;;;;;;10.34;70.59;98899.16;5051201;28;20132;-53
2022/04/12 09:22:24;;;;;;;19.20;9.63;;;;;;;10.45;69.97;98904.72;5031164;28;20045;-50
2022/04/12 09:24:51;;;;;;;18.60;9.77;;;;;;;10.55;69.77;98911.16;5030094;28;20741;-52
2022/04/12 09:27:19;;;;;;;22.58;12.63;;;;;;;10.62;69.74;98925.56;5063317;28;20033;-50
2022/04/12 09:29:50;;;;;;;29.15;18.42;;;;;;;10.67;69.44;98925.34;5034268;28;20131;-49
2022/04/12 09:32:22;;;;;;;30.65;20.00;;;;;;;10.71;69.36;98927.75;5048615;28;20043;-52
2022/04/12 09:34:49;;;;;;;21.58;12.38;;;;;;;10.71;69.82;98927.75;5051924;28;20479;-52
2022/04/12 09:37:17;;;;;;;19.08;9.13;;;;;;;10.74;69.75;98919.78;5049279;28;20041;-50
2022/04/12 09:40:11;;;;;;;15.70;8.97;;;;;;;10.75;69.50;98926.69;5050764;28;20052;-48
2022/04/12 09:42:44;;;;;;;17.52;9.25;;;;;;;10.87;69.19;98931.31;5078288;28;20283;-52
2022/04/12 09:45:16;;;;;;;20.25;9.00;;;;;;;11.00;68.81;98934.16;5050373;28;20075;-49
2022/04/12 09:47:42;;;;;;;21.30;10.60;;;;;;;11.06;68.38;98931.25;5049949;28;20063;-51
2022/04/12 09:50:09;;;;;;;19.20;11.15;;;;;;;11.06;68.19;98928.66;5050254;28;20041;-50
2022/04/12 09:52:35;;;;;;;20.02;11.98;;;;;;;11.00;68.13;98905.53;5050331;28;20052;-49
2022/04/12 09:55:01;;;;;;;24.85;13.38;;;;;;;11.10;67.67;98937.97;5050378;28;20041;-53
2022/04/12 09:57:28;;;;;;;25.00;12.05;;;;;;;11.10;67.73;98942.34;5049887;28;20535;-53
2022/04/12 09:59:56;;;;;;;20.52;11.25;;;;;;;11.14;68.11;98939.53;5048000;28;20057;-52
2022/04/12 10:02:24;;;;;;;16.77;10.10;;;;;;;11.19;67.32;98937.56;5050210;28;20096;-50
2022/04/12 10:04:54;;;;;;;14.75;8.77;;;;;;;11.16;67.80;98939.44;5049441;28;20045;-50
2022/04/12 10:07:23;;;;;;;18.70;10.07;;;;;;;11.17;67.45;98947.19;5048557;28;20071;-50
2022/04/12 10:09:50;;;;;;;18.02;9.48;;;;;;;11.22;67.38;98941.75;5082071;28;20140;-50
2022/04/12 10:12:18;;;;;;;14.05;8.80;;;;;;;11.25;66.83;98941.63;5048500;28;20071;-52
2022/04/12 10:14:46;;;;;;;13.45;8.25;;;;;;;11.27;67.43;98944.97;5048319;28;20040;-50
2022/04/12 10:17:13;;;;;;;16.40;8.37;;;;;;;11.29;67.23;98943.16;5049090;28;20051;-48
2022/04/12 10:19:40;;;;;;;14.77;7.72;;;;;;;11.37;66.76;98944.44;5048755;28;20659;-51
2022/04/12 10:22:06;;;;;;;14.85;8.00;;;;;;;11.36;66.48;98927.16;5047842;28;20047;-49
2022/04/12 10:24:33;;;;;;;14.02;8.48;;;;;;;11.46;66.33;98928.38;5049172;28;20151;-53
2022/04/12 10:26:59;;;;;;;19.48;8.70;;;;;;;11.58;66.24;98939.09;5031549;28;20224;-53
2022/04/12 10:29:25;;;;;;;16.27;9.38;;;;;;;11.60;65.98;98929.47;5049453;28;20041;-52
2022/04/12 10:31:55;;;;;;;17.23;9.20;;;;;;;11.77;66.13;98951.16;5047961;28;20405;-53
2022/04/12 10:34:21;;;;;;;16.52;9.25;;;;;;;11.80;65.33;98943.19;5029646;28;20095;-48
2022/04/12 10:37:08;;;;;;;21.75;9.63;;;;;;;11.82;65.33;98946.56;5041966;28;20509;-51
2022/04/12 10:39:55;;;;;;;16.58;9.00;;;;;;;11.83;65.66;98950.81;5047900;28;20106;-52
2022/04/12 10:42:33;;;;;;;16.17;8.77;;;;;;;11.81;65.46;98963.09;5048126;28;20040;-49
2022/04/12 10:45:01;;;;;;;15.57;8.80;;;;;;;11.78;65.49;98965.00;5048202;28;20041;-50
2022/04/12 10:47:38;;;;;;;14.65;8.27;;;;;;;11.79;65.37;98964.94;5048052;28;20094;-51
2022/04/12 10:50:04;;;;;;;14.52;8.48;;;;;;;11.82;65.00;98967.41;5047514;28;20504;-51
2022/04/12 10:52:56;;;;;;;13.18;8.63;;;;;;;11.82;64.97;98975.22;5044481;28;20146;-55
2022/04/12 10:55:25;;;;;;;13.73;8.35;;;;;;;11.87;65.00;98961.94;5029634;28;20047;-47
2022/04/12 10:57:52;;;;;;;15.60;8.77;;;;;;;11.91;64.90;98966.06;5059846;28;20041;-51
2022/04/12 11:00:20;;;;;;;19.38;9.75;;;;;;;11.94;64.34;98962.44;5028961;28;20057;-53
2022/04/12 11:02:52;;;;;;;16.63;9.02;;;;;;;11.93;64.06;98956.44;5063813;28;20072;-54
2022/04/12 11:05:44;;;;;;;16.58;8.82;;;;;;;11.97;64.22;98954.50;5047128;28;20094;-50
2022/04/12 11:08:16;;;;;;;16.05;9.18;;;;;;;11.96;64.54;98945.00;5025981;28;20072;-50
2022/04/12 11:11:06;;;;;;;16.20;9.70;;;;;;;11.89;64.39;98947.06;5065737;28;20059;-51
2022/04/12 11:13:33;;;;;;;16.13;8.88;;;;;;;11.83;64.52;98945.59;5045158;28;20072;-55
2022/04/12 11:16:03;;;;;;;20.15;9.18;;;;;;;11.76;64.70;98946.03;5048496;28;20033;-50
2022/04/12 11:18:44;;;;;;;17.20;9.05;;;;;;;11.68;64.69;98946.34;5048266;28;20041;-48
2022/04/12 11:21:10;;;;;;;17.05;9.20;;;;;;;11.58;65.14;98950.34;5047108;28;20205;-49
2022/04/12 11:23:52;;;;;;;16.15;9.73;;;;;;;11.51;65.19;98946.38;5048491;28;20663;-50
2022/04/12 11:26:40;;;;;;;12.95;8.43;;;;;;;11.42;65.52;98942.47;5048294;28;20417;-49
2022/04/12 11:29:10;;;;;;;18.02;9.18;;;;;;;11.40;66.03;98940.88;5047330;28;20544;-49
2022/04/12 11:31:55;;;;;;;17.10;9.88;;;;;;;11.42;65.34;98936.41;5048238;28;20041;-51